createdAt,value
2019-05-26T00:00:06.321Z,8.10
2019-05-26T00:02:35.227Z,8.40
2019-05-26T00:05:05.850Z,8.50
2019-05-26T00:07:34.543Z,8.80
2019-05-26T00:10:04.099Z,8.67
2019-05-26T00:12:32.936Z,9.87
2019-05-26T00:15:01.507Z,10.13
2019-05-26T00:17:30.172Z,10.63
2019-05-26T00:19:59.097Z,10.37
2019-05-26T00:22:27.694Z,10.57
2019-05-26T00:24:56.355Z,11.37
2019-05-26T00:27:25.016Z,11.07
2019-05-26T00:29:54.043Z,11.50
2019-05-26T00:32:22.630Z,11.60
2019-05-26T00:34:51.515Z,11.47
2019-05-26T00:37:20.253Z,11.13
2019-05-26T00:39:48.824Z,11.93
2019-05-26T00:42:21.436Z,11.83
2019-05-26T00:44:50.171Z,11.57
2019-05-26T00:47:18.839Z,12.07
2019-05-26T00:49:47.547Z,11.23
2019-05-26T00:52:16.611Z,10.50
2019-05-26T00:54:45.347Z,11.37
2019-05-26T00:57:14.353Z,11.60
2019-05-26T00:59:43.067Z,11.30
2019-05-26T01:02:12.301Z,12.27
2019-05-26T01:04:40.919Z,12.13
2019-05-26T01:07:09.722Z,11.57
2019-05-26T01:09:38.317Z,12.07
2019-05-26T01:12:07.125Z,12.07
2019-05-26T01:14:35.787Z,12.30
2019-05-26T01:17:05.129Z,12.67
2019-05-26T01:19:33.770Z,12.37
2019-05-26T01:22:02.884Z,12.63
2019-05-26T01:24:31.462Z,12.67
2019-05-26T01:27:00.672Z,12.57
2019-05-26T01:29:29.307Z,12.73
2019-05-26T01:31:57.977Z,12.50
2019-05-26T01:34:26.684Z,12.40
2019-05-26T01:36:55.823Z,13.23
2019-05-26T01:39:24.831Z,12.60
2019-05-26T01:41:53.420Z,12.40
2019-05-26T01:44:21.987Z,13.57
2019-05-26T01:46:50.596Z,13.47
2019-05-26T01:49:19.544Z,13.10
2019-05-26T01:51:48.159Z,13.00
2019-05-26T01:54:17.019Z,14.97
2019-05-26T01:56:45.603Z,14.50
2019-05-26T01:59:14.148Z,13.03
2019-05-26T02:01:42.744Z,12.60
2019-05-26T02:04:11.336Z,12.80
2019-05-26T02:06:40.246Z,13.13
2019-05-26T02:09:09.177Z,12.73
2019-05-26T02:11:38.019Z,13.53
2019-05-26T02:14:06.922Z,13.87
2019-05-26T02:16:35.492Z,13.50
2019-05-26T02:19:04.533Z,12.63
2019-05-26T02:21:33.475Z,12.57
2019-05-26T02:24:02.535Z,13.17
2019-05-26T02:26:31.175Z,12.87
2019-05-26T02:29:00.147Z,12.90
2019-05-26T02:31:28.840Z,12.80
2019-05-26T02:33:57.681Z,13.60
2019-05-26T02:36:26.378Z,12.23
2019-05-26T02:39:02.653Z,12.17
2019-05-26T02:41:26.044Z,13.07
2019-05-26T02:43:54.675Z,12.70
2019-05-26T02:46:23.716Z,12.47
2019-05-26T02:48:52.377Z,13.20
2019-05-26T02:51:21.057Z,13.20
2019-05-26T02:53:49.756Z,12.40
2019-05-26T02:56:18.325Z,13.27
2019-05-26T02:58:47.448Z,13.33
2019-05-26T03:01:16.887Z,13.27
2019-05-26T03:03:45.552Z,13.07
2019-05-26T03:06:15.444Z,13.10
2019-05-26T03:08:45.672Z,14.03
2019-05-26T03:11:15.278Z,14.00
2019-05-26T03:13:46.921Z,13.47
2019-05-26T03:16:18.012Z,13.73
2019-05-26T03:18:49.575Z,13.07
2019-05-26T03:21:20.524Z,13.43
2019-05-26T03:23:52.294Z,13.87
2019-05-26T03:26:21.311Z,13.10
2019-05-26T03:28:50.305Z,14.10
2019-05-26T03:31:19.029Z,13.13
2019-05-26T03:33:47.575Z,13.70
2019-05-26T03:36:16.311Z,13.80
2019-05-26T03:38:44.956Z,14.03
2019-05-26T03:41:14.039Z,14.30
2019-05-26T03:43:42.748Z,13.63
2019-05-26T03:46:19.574Z,13.70
2019-05-26T03:48:48.356Z,14.40
2019-05-26T03:51:16.951Z,13.60
2019-05-26T03:53:45.584Z,14.00
2019-05-26T03:56:14.342Z,14.03
2019-05-26T03:58:42.919Z,13.73
2019-05-26T04:01:12.025Z,13.57
2019-05-26T04:03:40.656Z,13.13
2019-05-26T04:06:09.401Z,13.37
2019-05-26T04:08:37.993Z,13.30
2019-05-26T04:11:06.817Z,12.77
2019-05-26T04:13:35.456Z,13.20
2019-05-26T04:16:04.645Z,13.07
2019-05-26T04:18:33.303Z,12.70
2019-05-26T04:21:01.918Z,13.03
2019-05-26T04:23:31.112Z,12.57
2019-05-26T04:25:59.771Z,12.67
2019-05-26T04:28:28.408Z,12.17
2019-05-26T04:30:57.367Z,12.27
2019-05-26T04:33:25.931Z,11.63
2019-05-26T04:35:54.568Z,12.07
2019-05-26T04:38:23.241Z,11.93
2019-05-26T04:40:51.906Z,12.43
2019-05-26T04:43:20.743Z,11.23
2019-05-26T04:45:49.335Z,11.60
2019-05-26T04:48:17.971Z,11.17
2019-05-26T04:50:46.578Z,11.93
2019-05-26T04:53:15.536Z,12.07
2019-05-26T04:55:44.111Z,11.60
2019-05-26T04:58:13.052Z,11.47
2019-05-26T05:00:41.764Z,10.90
2019-05-26T05:03:10.565Z,11.30
2019-05-26T05:05:39.205Z,11.40
2019-05-26T05:08:07.809Z,10.67
2019-05-26T05:10:42.439Z,11.97
2019-05-26T05:13:06.677Z,11.97
2019-05-26T05:15:35.480Z,11.03
2019-05-26T05:18:04.173Z,10.23
2019-05-26T05:20:32.740Z,10.93
2019-05-26T05:23:01.708Z,10.53
2019-05-26T05:25:30.339Z,11.20
2019-05-26T05:28:00.662Z,11.53
2019-05-26T05:30:33.177Z,10.83
2019-05-26T05:33:02.209Z,10.60
2019-05-26T05:35:31.168Z,10.77
2019-05-26T05:37:59.759Z,10.03
2019-05-26T05:40:28.751Z,10.40
2019-05-26T05:42:57.643Z,10.57
2019-05-26T05:45:26.474Z,10.90
2019-05-26T05:47:55.528Z,10.23
2019-05-26T05:50:24.191Z,10.43
2019-05-26T05:52:52.827Z,10.40
2019-05-26T05:55:21.939Z,10.17
2019-05-26T05:57:50.471Z,10.63
2019-05-26T06:00:19.456Z,10.70
2019-05-26T06:02:48.084Z,10.40
2019-05-26T06:05:16.987Z,9.67
2019-05-26T06:07:46.027Z,10.10
2019-05-26T06:10:14.834Z,9.70
2019-05-26T06:12:43.433Z,10.30
2019-05-26T06:15:13.440Z,9.60
2019-05-26T06:17:43.041Z,10.00
2019-05-26T06:20:12.169Z,9.80
2019-05-26T06:22:41.108Z,9.30
2019-05-26T06:25:10.609Z,9.07
2019-05-26T06:27:39.314Z,9.30
2019-05-26T06:30:10.217Z,9.43
2019-05-26T06:32:38.891Z,9.20
2019-05-26T06:35:08.231Z,8.73
2019-05-26T06:37:36.794Z,8.40
2019-05-26T06:40:06.736Z,8.57
2019-05-26T06:42:35.444Z,8.17
2019-05-26T06:45:08.442Z,8.50
2019-05-26T06:47:37.011Z,8.13
2019-05-26T06:50:06.139Z,7.77
2019-05-26T06:52:34.776Z,7.33
2019-05-26T06:55:04.359Z,7.27
2019-05-26T06:57:33.089Z,7.30
2019-05-26T07:00:01.655Z,6.87
2019-05-26T07:02:30.265Z,6.70
2019-05-26T07:05:00.043Z,5.87
2019-05-26T07:07:28.846Z,6.00
2019-05-26T07:09:57.843Z,5.80
2019-05-26T07:12:26.691Z,5.58
2019-05-26T07:14:55.392Z,6.25
2019-05-26T07:17:23.992Z,6.30
2019-05-26T07:19:52.554Z,5.83
2019-05-26T07:22:21.216Z,6.83
2019-05-26T07:24:49.879Z,5.95
2019-05-26T07:27:18.472Z,6.08
2019-05-26T07:29:47.139Z,6.15
2019-05-26T07:32:15.720Z,5.50
2019-05-26T07:34:44.807Z,6.00
2019-05-26T07:37:13.746Z,6.10
2019-05-26T07:39:42.403Z,6.25
2019-05-26T07:42:11.396Z,5.83
2019-05-26T07:44:40.412Z,5.95
2019-05-26T07:47:09.032Z,5.67
2019-05-26T07:49:37.709Z,5.50
2019-05-26T07:52:06.339Z,6.05
2019-05-26T07:54:34.978Z,5.42
2019-05-26T07:57:03.946Z,5.25
2019-05-26T07:59:32.510Z,5.05
2019-05-26T08:02:01.760Z,4.42
2019-05-26T08:04:30.326Z,4.33
2019-05-26T08:06:59.231Z,4.20
2019-05-26T08:09:27.800Z,4.55
2019-05-26T08:11:56.362Z,4.25
2019-05-26T08:14:25.083Z,15.55
2019-05-26T08:16:53.751Z,5.72
2019-05-26T08:19:22.331Z,4.90
2019-05-26T08:21:54.410Z,4.92
2019-05-26T08:24:21.735Z,5.00
2019-05-26T08:26:50.405Z,4.40
2019-05-26T08:29:19.324Z,4.10
2019-05-26T08:31:47.915Z,4.67
2019-05-26T08:34:16.551Z,4.90
2019-05-26T08:36:45.136Z,4.20
2019-05-26T08:39:13.866Z,4.08
2019-05-26T08:41:42.615Z,4.62
2019-05-26T08:44:11.319Z,4.42
2019-05-26T08:46:39.951Z,4.50
2019-05-26T08:49:08.607Z,4.30
2019-05-26T08:51:37.234Z,4.87
2019-05-26T08:54:05.964Z,4.87
2019-05-26T08:56:34.527Z,4.50
2019-05-26T08:59:03.120Z,4.45
2019-05-26T09:01:31.820Z,4.80
2019-05-26T09:04:00.803Z,4.90
2019-05-26T09:06:29.797Z,4.78
2019-05-26T09:08:58.391Z,4.97
2019-05-26T09:11:27.020Z,4.95
2019-05-26T09:13:55.755Z,5.22
2019-05-26T09:16:24.487Z,4.72
2019-05-26T09:18:53.426Z,4.55
2019-05-26T09:21:22.028Z,4.65
2019-05-26T09:23:50.698Z,4.60
2019-05-26T09:26:19.356Z,4.75
2019-05-26T09:28:47.919Z,4.75
2019-05-26T09:31:16.578Z,4.80
2019-05-26T09:33:45.207Z,4.95
2019-05-26T09:36:13.794Z,4.83
2019-05-26T09:38:42.437Z,4.70
2019-05-26T09:41:11.219Z,4.35
2019-05-26T09:43:39.807Z,4.95
2019-05-26T09:46:08.863Z,4.62
2019-05-26T09:48:37.607Z,5.33
2019-05-26T09:51:06.258Z,4.58
2019-05-26T09:53:34.915Z,4.30
2019-05-26T09:56:03.563Z,5.22
2019-05-26T09:58:32.132Z,5.22
2019-05-26T10:01:01.075Z,5.05
2019-05-26T10:03:29.712Z,5.97
2019-05-26T10:05:58.442Z,5.03
2019-05-26T10:08:27.108Z,4.33
2019-05-26T10:10:56.127Z,4.58
2019-05-26T10:13:31.838Z,3.98
2019-05-26T10:15:55.096Z,4.47
2019-05-26T10:18:24.140Z,3.72
2019-05-26T10:20:52.712Z,6.35
2019-05-26T10:23:21.491Z,4.75
2019-05-26T10:25:50.280Z,4.00
2019-05-26T10:28:18.983Z,4.28
2019-05-26T10:30:47.687Z,3.85
2019-05-26T10:33:16.284Z,3.77
2019-05-26T10:35:44.909Z,3.92
2019-05-26T10:38:13.576Z,4.22
2019-05-26T10:40:42.220Z,4.20
2019-05-26T10:43:10.979Z,4.00
2019-05-26T10:45:39.619Z,4.17
2019-05-26T10:48:08.583Z,4.67
2019-05-26T10:50:37.667Z,4.20
2019-05-26T10:53:06.235Z,3.87
2019-05-26T10:55:34.970Z,3.22
2019-05-26T10:58:03.743Z,3.55
2019-05-26T11:00:33.335Z,3.80
2019-05-26T11:03:02.037Z,3.33
2019-05-26T11:05:30.707Z,3.70
2019-05-26T11:08:00.536Z,3.80
2019-05-26T11:10:29.074Z,4.45
2019-05-26T11:12:58.067Z,3.70
2019-05-26T11:15:26.799Z,4.17
2019-05-26T11:17:55.531Z,3.58
2019-05-26T11:20:24.612Z,4.30
2019-05-26T11:22:53.271Z,4.03
2019-05-26T11:25:21.835Z,4.00
2019-05-26T11:27:50.447Z,3.90
2019-05-26T11:30:19.553Z,3.50
2019-05-26T11:32:48.283Z,3.40
2019-05-26T11:35:17.196Z,2.27
2019-05-26T11:37:45.827Z,2.30
2019-05-26T11:40:15.539Z,2.70
2019-05-26T11:42:45.230Z,2.50
2019-05-26T11:45:14.940Z,2.15
2019-05-26T11:47:43.718Z,2.58
2019-05-26T11:50:13.267Z,2.47
2019-05-26T11:52:41.898Z,2.98
2019-05-26T11:55:10.851Z,2.50
2019-05-26T11:57:39.407Z,2.50
2019-05-26T12:00:11.703Z,2.12
2019-05-26T12:02:40.400Z,2.67
2019-05-26T12:05:09.435Z,2.50
2019-05-26T12:07:38.100Z,3.70
2019-05-26T12:10:13.630Z,4.60
2019-05-26T12:12:40.341Z,3.87
2019-05-26T12:15:09.567Z,3.97
2019-05-26T12:17:38.190Z,2.70
2019-05-26T12:20:07.454Z,3.70
2019-05-26T12:22:36.317Z,5.00
2019-05-26T12:25:08.804Z,2.70
2019-05-26T12:27:37.773Z,6.20
2019-05-26T12:30:09.526Z,14.60
2019-05-26T12:32:38.370Z,2.87
2019-05-26T12:35:08.771Z,13.00
2019-05-26T12:37:37.499Z,2.50
2019-05-26T12:40:10.008Z,3.97
2019-05-26T12:42:39.029Z,9.83
2019-05-26T12:45:08.934Z,3.87
2019-05-26T12:47:38.033Z,8.20
2019-05-26T12:50:08.636Z,2.90
2019-05-26T12:52:37.533Z,2.00
2019-05-26T12:55:09.267Z,1.70
2019-05-26T12:57:37.738Z,1.60
2019-05-26T13:00:10.139Z,1.53
2019-05-26T13:02:38.781Z,1.67
2019-05-26T13:05:09.451Z,1.33
2019-05-26T13:07:38.173Z,1.20
2019-05-26T13:10:10.631Z,1.50
2019-05-26T13:12:39.627Z,1.50
2019-05-26T13:15:09.965Z,1.87
2019-05-26T13:17:38.660Z,1.50
2019-05-26T13:20:09.347Z,1.47
2019-05-26T13:22:38.482Z,1.40
2019-05-26T13:25:09.334Z,2.97
2019-05-26T13:27:38.067Z,1.50
2019-05-26T13:30:08.303Z,1.40
2019-05-26T13:32:36.939Z,1.50
2019-05-26T13:35:09.143Z,1.10
2019-05-26T13:37:37.795Z,1.43
2019-05-26T13:40:07.366Z,1.50
2019-05-26T13:42:36.766Z,1.30
2019-05-26T13:45:21.186Z,1.77
2019-05-26T13:47:39.119Z,1.37
2019-05-26T13:50:08.852Z,1.50
2019-05-26T13:52:37.689Z,1.70
2019-05-26T13:55:09.979Z,1.50
2019-05-26T13:57:38.683Z,1.70
2019-05-26T14:00:10.131Z,1.40
2019-05-26T14:02:39.193Z,1.70
2019-05-26T14:05:09.091Z,1.50
2019-05-26T14:07:37.824Z,1.70
2019-05-26T14:10:08.220Z,1.50
2019-05-26T14:12:37.067Z,1.47
2019-05-26T14:15:08.204Z,1.50
2019-05-26T14:17:38.736Z,1.60
2019-05-26T14:20:08.523Z,1.60
2019-05-26T14:22:37.185Z,1.60
2019-05-26T14:25:06.988Z,1.60
2019-05-26T14:27:35.671Z,1.70
2019-05-26T14:30:06.786Z,1.77
2019-05-26T14:32:35.490Z,1.80
2019-05-26T14:35:05.659Z,1.70
2019-05-26T14:37:34.315Z,1.83
2019-05-26T14:40:03.594Z,1.90
2019-05-26T14:42:32.141Z,1.70
2019-05-26T14:45:03.929Z,1.80
2019-05-26T14:47:30.940Z,1.70
2019-05-26T14:49:59.537Z,2.00
2019-05-26T14:52:28.152Z,2.10
2019-05-26T14:54:57.075Z,2.10
2019-05-26T14:57:25.836Z,1.77
2019-05-26T14:59:54.747Z,1.80
2019-05-26T15:02:23.381Z,2.00
2019-05-26T15:04:51.966Z,2.00
2019-05-26T15:07:20.638Z,2.10
2019-05-26T15:09:49.591Z,2.00
2019-05-26T15:12:18.583Z,1.90
2019-05-26T15:14:47.139Z,1.90
2019-05-26T15:17:16.064Z,2.00
2019-05-26T15:19:44.784Z,2.07
2019-05-26T15:22:13.715Z,1.50
2019-05-26T15:24:42.281Z,1.60
2019-05-26T15:27:11.310Z,1.57
2019-05-26T15:29:40.301Z,1.90
2019-05-26T15:32:08.923Z,1.70
2019-05-26T15:34:37.915Z,2.00
2019-05-26T15:37:06.654Z,1.80
2019-05-26T15:39:35.363Z,1.80
2019-05-26T15:42:04.443Z,2.57
2019-05-26T15:44:33.539Z,2.10
2019-05-26T15:47:02.372Z,1.83
2019-05-26T15:49:31.043Z,1.80
2019-05-26T15:51:59.704Z,1.80
2019-05-26T15:54:28.261Z,1.70
2019-05-26T15:56:56.919Z,1.73
2019-05-26T15:59:25.483Z,1.70
2019-05-26T16:01:54.192Z,1.60
2019-05-26T16:04:23.024Z,1.70
2019-05-26T16:06:51.683Z,2.77
2019-05-26T16:09:20.240Z,2.57
2019-05-26T16:11:48.901Z,2.00
2019-05-26T16:14:17.527Z,2.43
2019-05-26T16:16:46.560Z,1.90
2019-05-26T16:19:15.579Z,3.43
2019-05-26T16:21:44.191Z,2.47
2019-05-26T16:24:12.899Z,1.90
2019-05-26T16:26:41.478Z,1.77
2019-05-26T16:29:10.039Z,1.50
2019-05-26T16:31:38.971Z,1.63
2019-05-26T16:34:07.963Z,1.40
2019-05-26T16:36:36.535Z,1.60
2019-05-26T16:39:06.919Z,1.53
2019-05-26T16:41:35.510Z,1.67
2019-05-26T16:44:04.646Z,1.77
2019-05-26T16:46:33.276Z,1.30
2019-05-26T16:49:01.931Z,2.70
2019-05-26T16:51:31.013Z,3.77
2019-05-26T16:54:00.004Z,2.90
2019-05-26T16:56:28.632Z,2.00
2019-05-26T16:58:57.289Z,1.40
2019-05-26T17:01:26.012Z,1.60
2019-05-26T17:03:54.951Z,1.87
2019-05-26T17:06:23.694Z,2.30
2019-05-26T17:08:53.024Z,2.07
2019-05-26T17:11:22.032Z,2.10
2019-05-26T17:13:51.027Z,2.10
2019-05-26T17:16:19.685Z,1.70
2019-05-26T17:18:48.378Z,1.97
2019-05-26T17:21:17.312Z,2.30
2019-05-26T17:23:47.171Z,1.90
2019-05-26T17:26:15.903Z,1.80
2019-05-26T17:28:44.464Z,3.13
2019-05-26T17:31:13.356Z,1.67
2019-05-26T17:33:42.015Z,2.63
2019-05-26T17:36:10.935Z,1.43
2019-05-26T17:38:39.830Z,1.87
2019-05-26T17:41:08.817Z,4.70
2019-05-26T17:43:37.475Z,2.60
2019-05-26T17:46:06.121Z,2.30
2019-05-26T17:48:34.776Z,9.50
2019-05-26T17:51:09.051Z,2.00
2019-05-26T17:53:37.981Z,1.80
2019-05-26T17:56:06.967Z,2.30
2019-05-26T17:58:35.559Z,1.70
2019-05-26T18:01:05.743Z,2.00
2019-05-26T18:03:34.516Z,2.03
2019-05-26T18:06:03.219Z,2.07
2019-05-26T18:08:31.801Z,2.27
2019-05-26T18:11:00.451Z,2.60
2019-05-26T18:13:29.099Z,2.00
2019-05-26T18:15:57.984Z,2.00
2019-05-26T18:18:26.975Z,1.53
2019-05-26T18:20:55.973Z,1.53
2019-05-26T18:23:24.618Z,3.57
2019-05-26T18:25:53.195Z,1.80
2019-05-26T18:28:21.823Z,1.90
2019-05-26T18:30:50.810Z,2.10
2019-05-26T18:33:19.382Z,1.60
2019-05-26T18:35:48.899Z,1.50
2019-05-26T18:38:17.804Z,1.20
2019-05-26T18:40:46.683Z,1.40
2019-05-26T18:43:15.495Z,1.50
2019-05-26T18:45:44.167Z,1.40
2019-05-26T18:48:12.779Z,1.50
2019-05-26T18:50:42.948Z,1.90
2019-05-26T18:53:13.652Z,1.20
2019-05-26T18:55:42.856Z,1.20
2019-05-26T18:58:11.804Z,1.10
2019-05-26T19:00:40.792Z,1.80
2019-05-26T19:03:09.435Z,1.40
2019-05-26T19:05:38.608Z,1.40
2019-05-26T19:08:07.604Z,1.77
2019-05-26T19:10:36.307Z,1.57
2019-05-26T19:13:05.427Z,1.70
2019-05-26T19:15:34.419Z,1.63
2019-05-26T19:18:18.691Z,1.30
2019-05-26T19:20:34.144Z,1.30
2019-05-26T19:23:02.820Z,1.40
2019-05-26T19:25:31.622Z,1.63
2019-05-26T19:28:01.943Z,1.70
2019-05-26T19:30:30.515Z,1.43
2019-05-26T19:32:59.415Z,1.73
2019-05-26T19:35:28.096Z,1.60
2019-05-26T19:37:57.102Z,2.47
2019-05-26T19:40:25.856Z,1.83
2019-05-26T19:42:54.496Z,1.80
2019-05-26T19:45:23.192Z,2.03
2019-05-26T19:47:51.855Z,1.50
2019-05-26T19:50:20.592Z,2.73
2019-05-26T19:52:50.080Z,1.90
2019-05-26T19:55:18.975Z,1.73
2019-05-26T19:57:47.898Z,1.70
2019-05-26T20:00:19.175Z,1.67
2019-05-26T20:02:47.915Z,1.70
2019-05-26T20:05:17.033Z,1.60
2019-05-26T20:07:46.128Z,1.90
2019-05-26T20:10:16.584Z,1.60
2019-05-26T20:12:45.157Z,1.50
2019-05-26T20:15:14.596Z,1.60
2019-05-26T20:17:43.503Z,1.83
2019-05-26T20:20:13.805Z,1.40
2019-05-26T20:22:42.512Z,1.70
2019-05-26T20:25:11.852Z,1.43
2019-05-26T20:27:40.413Z,1.67
2019-05-26T20:30:09.681Z,1.70
2019-05-26T20:32:38.450Z,1.53
2019-05-26T20:35:08.123Z,1.77
2019-05-26T20:37:36.749Z,1.80
2019-05-26T20:40:08.247Z,1.87
2019-05-26T20:42:36.973Z,1.60
2019-05-26T20:45:08.296Z,1.70
2019-05-26T20:47:37.279Z,1.63
2019-05-26T20:50:10.188Z,1.80
2019-05-26T20:52:38.776Z,3.73
2019-05-26T20:55:08.600Z,2.63
2019-05-26T20:57:37.295Z,1.80
2019-05-26T21:00:11.306Z,1.70
2019-05-26T21:02:41.678Z,2.20
2019-05-26T21:05:11.174Z,2.40
2019-05-26T21:07:40.027Z,2.13
2019-05-26T21:10:10.103Z,2.00
2019-05-26T21:12:38.767Z,2.27
2019-05-26T21:15:08.888Z,2.00
2019-05-26T21:17:38.916Z,1.70
2019-05-26T21:20:08.225Z,2.00
2019-05-26T21:22:36.918Z,2.07
2019-05-26T21:25:06.948Z,2.30
2019-05-26T21:27:35.567Z,2.27
2019-05-26T21:30:07.240Z,2.10
2019-05-26T21:32:35.927Z,2.10
2019-05-26T21:35:09.175Z,2.27
2019-05-26T21:37:37.832Z,1.80
2019-05-26T21:40:08.080Z,2.03
2019-05-26T21:42:36.743Z,2.30
2019-05-26T21:45:06.992Z,2.20
2019-05-26T21:47:35.610Z,2.43
2019-05-26T21:50:06.631Z,2.37
2019-05-26T21:52:35.223Z,2.60
2019-05-26T21:55:04.953Z,2.10
2019-05-26T21:57:33.675Z,2.30
2019-05-26T22:00:02.779Z,2.37
2019-05-26T22:02:31.368Z,2.30
2019-05-26T22:04:59.990Z,2.40
2019-05-26T22:07:28.921Z,2.73
2019-05-26T22:09:57.579Z,2.20
2019-05-26T22:12:26.187Z,2.47
2019-05-26T22:14:54.826Z,2.43
2019-05-26T22:17:23.476Z,2.80
2019-05-26T22:19:52.039Z,2.20
2019-05-26T22:22:21.007Z,2.00
2019-05-26T22:24:49.571Z,2.30
2019-05-26T22:27:18.539Z,2.30
2019-05-26T22:29:47.576Z,2.27
2019-05-26T22:32:16.569Z,2.20
2019-05-26T22:34:45.159Z,2.40
2019-05-26T22:37:13.714Z,2.80
2019-05-26T22:39:42.312Z,2.10
2019-05-26T22:42:10.875Z,2.10
2019-05-26T22:44:39.800Z,2.50
2019-05-26T22:47:08.808Z,2.50
2019-05-26T22:49:37.667Z,2.13
2019-05-26T22:52:06.291Z,2.00
2019-05-26T22:54:34.959Z,2.20
2019-05-26T22:57:03.614Z,2.20
2019-05-26T22:59:32.620Z,2.13
2019-05-26T23:02:01.186Z,2.20
2019-05-26T23:04:30.097Z,2.17
2019-05-26T23:06:58.664Z,2.33
2019-05-26T23:09:27.311Z,2.43
2019-05-26T23:11:56.171Z,2.70
2019-05-26T23:14:25.931Z,2.57
2019-05-26T23:16:54.595Z,2.37
2019-05-26T23:19:23.163Z,2.60
2019-05-26T23:21:51.743Z,2.53
2019-05-26T23:24:20.678Z,2.60
2019-05-26T23:26:49.296Z,2.37
2019-05-26T23:29:17.995Z,2.50
2019-05-26T23:31:46.660Z,2.60
2019-05-26T23:34:15.226Z,2.37
2019-05-26T23:36:43.822Z,2.13
2019-05-26T23:39:12.738Z,3.00
2019-05-26T23:41:41.267Z,2.90
2019-05-26T23:44:09.848Z,2.50
2019-05-26T23:46:38.817Z,2.57
2019-05-26T23:49:07.543Z,2.43
2019-05-26T23:51:36.167Z,2.63
2019-05-26T23:54:04.916Z,2.97
2019-05-26T23:56:33.815Z,2.73
2019-05-26T23:59:02.531Z,2.83
